Wyola, Montana
Current Conditions -  °F | °C
As of 4:53 PM on Friday 28 Nov 2014 (Local Time) from KSHR Reporting Station
Clear Clear  
Wind Chill: 58°   Ceiling: Unl
Heat Index: 58°   Visibility: 10mi
Dew Point: 21°   Wind: 9mph
Humidity: 24%   Direction: 230°SW
Pressure: 29.56"   Gusts: 18mph
Location:  45.13°N, 107.39°W
Report Text: KSHR 282353Z AUTO 23008G16KT 200V270 10SM CLR 14/M06 A2956 RMK AO2 PK WND 18031/2321 SLP991 T01441061 10172 20133 58003 TSNO
Loading
Personal Weather Stations






























Interactive Weather Map New forecast layout! Learn more

10-Day Weather Forecast

Advertisements
Track Severe Weather on mobile